Easter Island, Chile
Current Conditions -  °F | °C
As of 3:00 PM on Friday 24 Oct 2014 (Local Time) from SCIP Reporting Station
Scattered Clouds Scattered Clouds  
Wind Chill: 64°   Ceiling: Unl
Heat Index: 64°   Visibility: 6mi
Dew Point: 46°   Wind: 8mph
Humidity: 52%   Direction: 100°E
Pressure: 30.24"   Gusts: NA
Location:  27.12°S, 109.37°W
Report Text: SCIP 242100Z 10007KT 060V170 9999 SCT020 SCT030 18/08 Q1024 NOSIG
Loading
Personal Weather Stations






























Interactive Weather Map New forecast layout! Learn more

10-Day Weather Forecast

Advertisements
Track Severe Weather on mobile